Aviation Digital Data Service (ADDS)

Output produced by METARs form (0734 UTC 19 February 2019)
found at http://www.aviationweather.gov/metar/data/
 
METAR text: CYYC 190700Z 00000KT 15SM FEW190 FEW210 M20/M24 A2979 RMK AS1CI1 AS TR CI TR SLP186
Conditions at: CYYC (CALGARY INTNL AR, AB, CA) observed 0700 UTC 19 February 2019
Temperature: -20.0°C (-4°F)
Dewpoint: -24.0°C (-11°F) [RH = 70%]
Pressure (altimeter): 29.79 inches Hg (1008.9 mb)
[Sea-level pressure: 1018.6 mb]
Winds: calm
Visibility: 15 miles (24 km)
Ceiling: at least 12,000 feet AGL
Clouds: few clouds at 19000 feet AGL
few clouds at 21000 feet AGL
Weather: no significant weather observed at this time

METAR text: CYYC 190600Z 22003KT 15SM FEW210 M17/M21 A2980 RMK CI1 CI TR SLP189
Conditions at: CYYC (CALGARY INTNL AR, AB, CA) observed 0600 UTC 19 February 2019
Temperature: -17.0°C ( 1°F)
Dewpoint: -21.0°C (-6°F) [RH = 71%]
Pressure (altimeter): 29.80 inches Hg (1009.2 mb)
[Sea-level pressure: 1018.9 mb]
Winds: from the SW (220 degrees) at 3 MPH (3 knots; 1.5 m/s)
Visibility: 15 miles (24 km)
Ceiling: at least 12,000 feet AGL
Clouds: few clouds at 21000 feet AGL
Weather: no significant weather observed at this time

METAR text: CYYC 190500Z 21006KT 15SM SKC M19/M23 A2981 RMK SLP200
Conditions at: CYYC (CALGARY INTNL AR, AB, CA) observed 0500 UTC 19 February 2019
Temperature: -19.0°C (-2°F)
Dewpoint: -23.0°C (-9°F) [RH = 71%]
Pressure (altimeter): 29.81 inches Hg (1009.6 mb)
[Sea-level pressure: 1020.0 mb]
Winds: from the SSW (210 degrees) at 7 MPH (6 knots; 3.1 m/s)
Visibility: 15 miles (24 km)
Ceiling: at least 12,000 feet AGL
Clouds: clear skies
Weather: no significant weather observed at this time

METAR text: CYYC 190400Z 18009KT 15SM SKC M20/M23 A2984 RMK SLP212
Conditions at: CYYC (CALGARY INTNL AR, AB, CA) observed 0400 UTC 19 February 2019
Temperature: -20.0°C (-4°F)
Dewpoint: -23.0°C (-9°F) [RH = 77%]
Pressure (altimeter): 29.84 inches Hg (1010.6 mb)
[Sea-level pressure: 1021.2 mb]
Winds: from the S (180 degrees) at 10 MPH (9 knots; 4.6 m/s)
Visibility: 15 miles (24 km)
Ceiling: at least 12,000 feet AGL
Clouds: clear skies
Weather: no significant weather observed at this time

METAR text: CYYC 190300Z 19008KT 15SM SKC M19/M23 A2988 RMK PRESFR SLP225
Conditions at: CYYC (CALGARY INTNL AR, AB, CA) observed 0300 UTC 19 February 2019
Temperature: -19.0°C (-2°F)
Dewpoint: -23.0°C (-9°F) [RH = 71%]
Pressure (altimeter): 29.88 inches Hg (1011.9 mb)
[Sea-level pressure: 1022.5 mb]
Winds: from the S (190 degrees) at 9 MPH (8 knots; 4.1 m/s)
Visibility: 15 miles (24 km)
Ceiling: at least 12,000 feet AGL
Clouds: clear skies
Weather: no significant weather observed at this time

METAR text: CYYC 190200Z 18010KT 15SM FEW200 M19/M23 A2991 RMK CI1 SLP234
Conditions at: CYYC (CALGARY INTNL AR, AB, CA) observed 0200 UTC 19 February 2019
Temperature: -19.0°C (-2°F)
Dewpoint: -23.0°C (-9°F) [RH = 71%]
Pressure (altimeter): 29.91 inches Hg (1013.0 mb)
[Sea-level pressure: 1023.4 mb]
Winds: from the S (180 degrees) at 12 MPH (10 knots; 5.1 m/s)
Visibility: 15 miles (24 km)
Ceiling: at least 12,000 feet AGL
Clouds: few clouds at 20000 feet AGL
Weather: no significant weather observed at this time

METAR text: CYYC 190100Z 18008KT 15SM FEW200 M17/M22 A2994 RMK CI1 SLP243
Conditions at: CYYC (CALGARY INTNL AR, AB, CA) observed 0100 UTC 19 February 2019
Temperature: -17.0°C ( 1°F)
Dewpoint: -22.0°C (-8°F) [RH = 65%]
Pressure (altimeter): 29.94 inches Hg (1014.0 mb)
[Sea-level pressure: 1024.3 mb]
Winds: from the S (180 degrees) at 9 MPH (8 knots; 4.1 m/s)
Visibility: 15 miles (24 km)
Ceiling: at least 12,000 feet AGL
Clouds: few clouds at 20000 feet AGL
Weather: no significant weather observed at this time

METAR text: CYYC 190000Z 18010KT 15SM FEW250 M16/M21 A2997 RMK CI1 CI TR SLP251
Conditions at: CYYC (CALGARY INTNL AR, AB, CA) observed 0000 UTC 19 February 2019
Temperature: -16.0°C ( 3°F)
Dewpoint: -21.0°C (-6°F) [RH = 65%]
Pressure (altimeter): 29.97 inches Hg (1015.0 mb)
[Sea-level pressure: 1025.1 mb]
Winds: from the S (180 degrees) at 12 MPH (10 knots; 5.1 m/s)
Visibility: 15 miles (24 km)
Ceiling: at least 12,000 feet AGL
Clouds: few clouds at 25000 feet AGL
Weather: no significant weather observed at this time

METAR text: CYYC 182300Z 16008KT 15SM FEW250 M15/M21 A3000 RMK CI1 CI TR SLP260
Conditions at: CYYC (CALGARY INTNL AR, AB, CA) observed 2300 UTC 18 February 2019
Temperature: -15.0°C ( 5°F)
Dewpoint: -21.0°C (-6°F) [RH = 60%]
Pressure (altimeter): 30.00 inches Hg (1016.0 mb)
[Sea-level pressure: 1026.0 mb]
Winds: from the SSE (160 degrees) at 9 MPH (8 knots; 4.1 m/s)
Visibility: 15 miles (24 km)
Ceiling: at least 12,000 feet AGL
Clouds: few clouds at 25000 feet AGL
Weather: no significant weather observed at this time

METAR text: CYYC 182200Z 17011KT 15SM SKC M14/M21 A3003 RMK SLP270
Conditions at: CYYC (CALGARY INTNL AR, AB, CA) observed 2200 UTC 18 February 2019
Temperature: -14.0°C ( 7°F)
Dewpoint: -21.0°C (-6°F) [RH = 55%]
Pressure (altimeter): 30.03 inches Hg (1017.0 mb)
[Sea-level pressure: 1027.0 mb]
Winds: from the S (170 degrees) at 13 MPH (11 knots; 5.7 m/s)
Visibility: 15 miles (24 km)
Ceiling: at least 12,000 feet AGL
Clouds: clear skies
Weather: no significant weather observed at this time

METAR text: CYYC 182100Z 18011KT 15SM SKC M15/M21 A3006 RMK SLP277
Conditions at: CYYC (CALGARY INTNL AR, AB, CA) observed 2100 UTC 18 February 2019
Temperature: -15.0°C ( 5°F)
Dewpoint: -21.0°C (-6°F) [RH = 60%]
Pressure (altimeter): 30.06 inches Hg (1018.0 mb)
[Sea-level pressure: 1027.7 mb]
Winds: from the S (180 degrees) at 13 MPH (11 knots; 5.7 m/s)
Visibility: 15 miles (24 km)
Ceiling: at least 12,000 feet AGL
Clouds: clear skies
Weather: no significant weather observed at this time

METAR text: CYYC 182000Z 17011KT 15SM SKC M15/M21 A3009 RMK SLP291
Conditions at: CYYC (CALGARY INTNL AR, AB, CA) observed 2000 UTC 18 February 2019
Temperature: -15.0°C ( 5°F)
Dewpoint: -21.0°C (-6°F) [RH = 60%]
Pressure (altimeter): 30.09 inches Hg (1019.0 mb)
[Sea-level pressure: 1029.1 mb]
Winds: from the S (170 degrees) at 13 MPH (11 knots; 5.7 m/s)
Visibility: 15 miles (24 km)
Ceiling: at least 12,000 feet AGL
Clouds: clear skies
Weather: no significant weather observed at this time

METAR text: CYYC 181952Z 18010KT 15SM SKC M15/M21 A3010 RMK SLP291
Conditions at: CYYC (CALGARY INTNL AR, AB, CA) observed 1952 UTC 18 February 2019
Temperature: -15.0°C ( 5°F)
Dewpoint: -21.0°C (-6°F) [RH = 60%]
Pressure (altimeter): 30.10 inches Hg (1019.4 mb)
[Sea-level pressure: 1029.1 mb]
Winds: from the S (180 degrees) at 12 MPH (10 knots; 5.1 m/s)
Visibility: 15 miles (24 km)
Ceiling: at least 12,000 feet AGL
Clouds: clear skies
Weather: no significant weather observed at this time

METAR text: CYYC 181900Z 18010KT 15SM IC SKC M16/M21 A3013 RMK SLP306
Conditions at: CYYC (CALGARY INTNL AR, AB, CA) observed 1900 UTC 18 February 2019
Temperature: -16.0°C ( 3°F)
Dewpoint: -21.0°C (-6°F) [RH = 65%]
Pressure (altimeter): 30.13 inches Hg (1020.4 mb)
[Sea-level pressure: 1030.6 mb]
Winds: from the S (180 degrees) at 12 MPH (10 knots; 5.1 m/s)
Visibility: 15 miles (24 km)
Ceiling: at least 12,000 feet AGL
Clouds: clear skies
Weather: IC  (ice crystals)

METAR text: CYYC 181800Z 18005KT 15SM IC SKC M19/M21 A3016 RMK SLP319
Conditions at: CYYC (CALGARY INTNL AR, AB, CA) observed 1800 UTC 18 February 2019
Temperature: -19.0°C (-2°F)
Dewpoint: -21.0°C (-6°F) [RH = 84%]
Pressure (altimeter): 30.16 inches Hg (1021.4 mb)
[Sea-level pressure: 1031.9 mb]
Winds: from the S (180 degrees) at 6 MPH (5 knots; 2.6 m/s)
Visibility: 15 miles (24 km)
Ceiling: at least 12,000 feet AGL
Clouds: clear skies
Weather: IC  (ice crystals)

METAR text: CYYC 181700Z 20005KT 15SM IC SKC M20/M23 A3018 RMK SLP328
Conditions at: CYYC (CALGARY INTNL AR, AB, CA) observed 1700 UTC 18 February 2019
Temperature: -20.0°C (-4°F)
Dewpoint: -23.0°C (-9°F) [RH = 77%]
Pressure (altimeter): 30.18 inches Hg (1022.1 mb)
[Sea-level pressure: 1032.8 mb]
Winds: from the SSW (200 degrees) at 6 MPH (5 knots; 2.6 m/s)
Visibility: 15 miles (24 km)
Ceiling: at least 12,000 feet AGL
Clouds: clear skies
Weather: IC  (ice crystals)

METAR text: CYYC 181600Z 22006KT 10SM IC SKC M22/M24 A3019 RMK SLP335
Conditions at: CYYC (CALGARY INTNL AR, AB, CA) observed 1600 UTC 18 February 2019
Temperature: -22.0°C (-8°F)
Dewpoint: -24.0°C (-11°F) [RH = 84%]
Pressure (altimeter): 30.19 inches Hg (1022.4 mb)
[Sea-level pressure: 1033.5 mb]
Winds: from the SW (220 degrees) at 7 MPH (6 knots; 3.1 m/s)
Visibility: 10 or more miles (16+ km)
Ceiling: at least 12,000 feet AGL
Clouds: clear skies
Weather: IC  (ice crystals)

METAR text: CYYC 181500Z 20004KT 10SM R17L/4000VP6000FT/D IC SKC M23/M25 A3020 RMK PARAHELIA SLP338
Conditions at: CYYC (CALGARY INTNL AR, AB, CA) observed 1500 UTC 18 February 2019
Temperature: -23.0°C (-9°F)
Dewpoint: -25.0°C (-13°F) [RH = 84%]
Pressure (altimeter): 30.20 inches Hg (1022.8 mb)
[Sea-level pressure: 1033.8 mb]
Winds: from the SSW (200 degrees) at 5 MPH (4 knots; 2.1 m/s)
Visibility: 10 or more miles (16+ km)
Ceiling: at least 12,000 feet AGL
Clouds: clear skies
Weather: IC  (ice crystals)

METAR text: CYYC 181400Z 20004KT 5SM IC FEW007 FEW080 M22/M24 A3021 RMK ST1AC1 AC TR FROIN SLP339
Conditions at: CYYC (CALGARY INTNL AR, AB, CA) observed 1400 UTC 18 February 2019
Temperature: -22.0°C (-8°F)
Dewpoint: -24.0°C (-11°F) [RH = 84%]
Pressure (altimeter): 30.21 inches Hg (1023.1 mb)
[Sea-level pressure: 1033.9 mb]
Winds: from the SSW (200 degrees) at 5 MPH (4 knots; 2.1 m/s)
Visibility: 5 miles ( 8 km)
Ceiling: at least 12,000 feet AGL
Clouds: few clouds at 700 feet AGL
few clouds at 8000 feet AGL
Weather: IC  (ice crystals)

METAR text: CYYC 181300Z 19004KT 7SM IC FEW004 FEW080 M22/M24 A3023 RMK ST1AC1 ST TR FROIN SLP345
Conditions at: CYYC (CALGARY INTNL AR, AB, CA) observed 1300 UTC 18 February 2019
Temperature: -22.0°C (-8°F)
Dewpoint: -24.0°C (-11°F) [RH = 84%]
Pressure (altimeter): 30.23 inches Hg (1023.8 mb)
[Sea-level pressure: 1034.5 mb]
Winds: from the S (190 degrees) at 5 MPH (4 knots; 2.1 m/s)
Visibility: 7 miles (11 km)
Ceiling: at least 12,000 feet AGL
Clouds: few clouds at 400 feet AGL
few clouds at 8000 feet AGL
Weather: IC  (ice crystals)

METAR text: CYYC 181219Z 20004KT 5SM IC FEW002 FEW035 BKN078 M21/M24 A3024 RMK ST1SC1AC6 ST TR SC TR SLP347
Conditions at: CYYC (CALGARY INTNL AR, AB, CA) observed 1219 UTC 18 February 2019
Temperature: -21.0°C (-6°F)
Dewpoint: -24.0°C (-11°F) [RH = 77%]
Pressure (altimeter): 30.24 inches Hg (1024.1 mb)
[Sea-level pressure: 1034.7 mb]
Winds: from the SSW (200 degrees) at 5 MPH (4 knots; 2.1 m/s)
Visibility: 5 miles ( 8 km)
Ceiling: 7800 feet AGL
Clouds: few clouds at 200 feet AGL
few clouds at 3500 feet AGL
broken clouds at 7800 feet AGL
Weather: IC  (ice crystals)

METAR text: CYYC 181200Z 19003KT 10SM IC SCT077 BKN170 M21/M24 A3024 RMK AC4AS1 SLP350
Conditions at: CYYC (CALGARY INTNL AR, AB, CA) observed 1200 UTC 18 February 2019
Temperature: -21.0°C (-6°F)
Dewpoint: -24.0°C (-11°F) [RH = 77%]
Pressure (altimeter): 30.24 inches Hg (1024.1 mb)
[Sea-level pressure: 1035.0 mb]
Winds: from the S (190 degrees) at 3 MPH (3 knots; 1.5 m/s)
Visibility: 10 or more miles (16+ km)
Ceiling: 17000 feet AGL
Clouds: scattered clouds at 7700 feet AGL
broken clouds at 17000 feet AGL
Weather: IC  (ice crystals)

METAR text: CYYC 181127Z 18004KT 10SM IC SCT076 M21/M24 A3025 RMK AC3 SLP351
Conditions at: CYYC (CALGARY INTNL AR, AB, CA) observed 1127 UTC 18 February 2019
Temperature: -21.0°C (-6°F)
Dewpoint: -24.0°C (-11°F) [RH = 77%]
Pressure (altimeter): 30.25 inches Hg (1024.5 mb)
[Sea-level pressure: 1035.1 mb]
Winds: from the S (180 degrees) at 5 MPH (4 knots; 2.1 m/s)
Visibility: 10 or more miles (16+ km)
Ceiling: at least 12,000 feet AGL
Clouds: scattered clouds at 7600 feet AGL
Weather: IC  (ice crystals)

METAR text: CYYC 181100Z 19005KT 10SM FEW078 M22/M24 A3026 RMK AC2 SLP355
Conditions at: CYYC (CALGARY INTNL AR, AB, CA) observed 1100 UTC 18 February 2019
Temperature: -22.0°C (-8°F)
Dewpoint: -24.0°C (-11°F) [RH = 84%]
Pressure (altimeter): 30.26 inches Hg (1024.8 mb)
[Sea-level pressure: 1035.5 mb]
Winds: from the S (190 degrees) at 6 MPH (5 knots; 2.6 m/s)
Visibility: 10 or more miles (16+ km)
Ceiling: at least 12,000 feet AGL
Clouds: few clouds at 7800 feet AGL
Weather: no significant weather observed at this time

METAR text: CYYC 181000Z 16005KT 10SM FEW020 FEW045 M22/M24 A3028 RMK SC1SC1 SC TR SC TR SLP364
Conditions at: CYYC (CALGARY INTNL AR, AB, CA) observed 1000 UTC 18 February 2019
Temperature: -22.0°C (-8°F)
Dewpoint: -24.0°C (-11°F) [RH = 84%]
Pressure (altimeter): 30.28 inches Hg (1025.5 mb)
[Sea-level pressure: 1036.4 mb]
Winds: from the SSE (160 degrees) at 6 MPH (5 knots; 2.6 m/s)
Visibility: 10 or more miles (16+ km)
Ceiling: at least 12,000 feet AGL
Clouds: few clouds at 2000 feet AGL
few clouds at 4500 feet AGL
Weather: no significant weather observed at this time

METAR text: CYYC 180900Z 35002KT 7SM -SN SCT018 SCT045 BKN080 M20/M23 A3029 RMK SC3SC1AC1 SLP364
Conditions at: CYYC (CALGARY INTNL AR, AB, CA) observed 0900 UTC 18 February 2019
Temperature: -20.0°C (-4°F)
Dewpoint: -23.0°C (-9°F) [RH = 77%]
Pressure (altimeter): 30.29 inches Hg (1025.8 mb)
[Sea-level pressure: 1036.4 mb]
Winds: from the N (350 degrees) at 2 MPH (2 knots; 1.0 m/s)
Visibility: 7 miles (11 km)
Ceiling: 8000 feet AGL
Clouds: scattered clouds at 1800 feet AGL
scattered clouds at 4500 feet AGL
broken clouds at 8000 feet AGL
Weather: -SN  (light snow)

METAR text: CYYC 180800Z 09002KT 5SM -SN BR FEW020 SCT040 BKN067 M20/M23 A3030 RMK SC2SC1AC2 VIS VRB 3-7 SLP365
Conditions at: CYYC (CALGARY INTNL AR, AB, CA) observed 0800 UTC 18 February 2019
Temperature: -20.0°C (-4°F)
Dewpoint: -23.0°C (-9°F) [RH = 77%]
Pressure (altimeter): 30.30 inches Hg (1026.2 mb)
[Sea-level pressure: 1036.5 mb]
Winds: from the E (90 degrees) at 2 MPH (2 knots; 1.0 m/s)
Visibility: 5 miles ( 8 km)
Ceiling: 6700 feet AGL
Clouds: few clouds at 2000 feet AGL
scattered clouds at 4000 feet AGL
broken clouds at 6700 feet AGL
Weather: -SN BR  (light snow, mist)

METAR text: CYYC 180749Z 07002KT 5SM -SN BR BKN024 BKN067 M20/M23 A3031 RMK SC5AC2 SLP368
Conditions at: CYYC (CALGARY INTNL AR, AB, CA) observed 0749 UTC 18 February 2019
Temperature: -20.0°C (-4°F)
Dewpoint: -23.0°C (-9°F) [RH = 77%]
Pressure (altimeter): 30.31 inches Hg (1026.5 mb)
[Sea-level pressure: 1036.8 mb]
Winds: from the ENE (70 degrees) at 2 MPH (2 knots; 1.0 m/s)
Visibility: 5 miles ( 8 km)
Ceiling: 2400 feet AGL
Clouds: broken clouds at 2400 feet AGL
broken clouds at 6700 feet AGL
Weather: -SN BR  (light snow, mist)

METAR text: CYYC 180700Z 02002KT 2 1/2SM -SN BR FEW012 BKN027 BKN079 M19/M22 A3031 RMK SC2SC3AC2 VIS VRB 13/4 - 4 SLP370
Conditions at: CYYC (CALGARY INTNL AR, AB, CA) observed 0700 UTC 18 February 2019
Temperature: -19.0°C (-2°F)
Dewpoint: -22.0°C (-8°F) [RH = 77%]
Pressure (altimeter): 30.31 inches Hg (1026.5 mb)
[Sea-level pressure: 1037.0 mb]
Winds: from the NNE (20 degrees) at 2 MPH (2 knots; 1.0 m/s)
Visibility: 2.50 miles (4.02 km)
Ceiling: 2700 feet AGL
Clouds: few clouds at 1200 feet AGL
broken clouds at 2700 feet AGL
broken clouds at 7900 feet AGL
Weather: -SN BR  (light snow, mist)

METAR text: CYYC 180600Z 01004KT 2 1/2SM -SN BR BKN017 BKN032 M19/M22 A3032 RMK SC5SC2 /S01/ SLP372
Conditions at: CYYC (CALGARY INTNL AR, AB, CA) observed 0600 UTC 18 February 2019
Temperature: -19.0°C (-2°F)
Dewpoint: -22.0°C (-8°F) [RH = 77%]
Pressure (altimeter): 30.32 inches Hg (1026.8 mb)
[Sea-level pressure: 1037.2 mb]
Winds: from the N (10 degrees) at 5 MPH (4 knots; 2.1 m/s)
Visibility: 2.50 miles (4.02 km)
Ceiling: 1700 feet AGL
Clouds: broken clouds at 1700 feet AGL
broken clouds at 3200 feet AGL
Weather: -SN BR  (light snow, mist)

METAR text: CYYC 180517Z 04003KT 2 1/2SM -SN BR SCT014 BKN028 BKN080 M19/M22 A3031 RMK ST3SC2AC1 VIS VRB 13/4-4 SLP371
Conditions at: CYYC (CALGARY INTNL AR, AB, CA) observed 0517 UTC 18 February 2019
Temperature: -19.0°C (-2°F)
Dewpoint: -22.0°C (-8°F) [RH = 77%]
Pressure (altimeter): 30.31 inches Hg (1026.5 mb)
[Sea-level pressure: 1037.1 mb]
Winds: from the NE (40 degrees) at 3 MPH (3 knots; 1.5 m/s)
Visibility: 2.50 miles (4.02 km)
Ceiling: 2800 feet AGL
Clouds: scattered clouds at 1400 feet AGL
broken clouds at 2800 feet AGL
broken clouds at 8000 feet AGL
Weather: -SN BR  (light snow, mist)

METAR text: CYYC 180500Z 05003KT 5SM -SN BR FEW014 SCT020 BKN081 M19/M22 A3031 RMK ST2SC2AC1 SLP371
Conditions at: CYYC (CALGARY INTNL AR, AB, CA) observed 0500 UTC 18 February 2019
Temperature: -19.0°C (-2°F)
Dewpoint: -22.0°C (-8°F) [RH = 77%]
Pressure (altimeter): 30.31 inches Hg (1026.5 mb)
[Sea-level pressure: 1037.1 mb]
Winds: from the NE (50 degrees) at 3 MPH (3 knots; 1.5 m/s)
Visibility: 5 miles ( 8 km)
Ceiling: 8100 feet AGL
Clouds: few clouds at 1400 feet AGL
scattered clouds at 2000 feet AGL
broken clouds at 8100 feet AGL
Weather: -SN BR  (light snow, mist)

METAR text: CYYC 180400Z 06002KT 5SM -SN FEW010 SCT025 BKN081 M19/M22 A3031 RMK SF1SC2AC3 MOON DIMLY VISBL SLP369
Conditions at: CYYC (CALGARY INTNL AR, AB, CA) observed 0400 UTC 18 February 2019
Temperature: -19.0°C (-2°F)
Dewpoint: -22.0°C (-8°F) [RH = 77%]
Pressure (altimeter): 30.31 inches Hg (1026.5 mb)
[Sea-level pressure: 1036.9 mb]
Winds: from the ENE (60 degrees) at 2 MPH (2 knots; 1.0 m/s)
Visibility: 5 miles ( 8 km)
Ceiling: 8100 feet AGL
Clouds: few clouds at 1000 feet AGL
scattered clouds at 2500 feet AGL
broken clouds at 8100 feet AGL
Weather: -SN  (light snow)

METAR text: CYYC 180300Z 06002KT 5SM -SN SCT028 OVC082 M19/M22 A3031 RMK SC3AC5 SLP370
Conditions at: CYYC (CALGARY INTNL AR, AB, CA) observed 0300 UTC 18 February 2019
Temperature: -19.0°C (-2°F)
Dewpoint: -22.0°C (-8°F) [RH = 77%]
Pressure (altimeter): 30.31 inches Hg (1026.5 mb)
[Sea-level pressure: 1037.0 mb]
Winds: from the ENE (60 degrees) at 2 MPH (2 knots; 1.0 m/s)
Visibility: 5 miles ( 8 km)
Ceiling: 8200 feet AGL
Clouds: scattered clouds at 2800 feet AGL
overcast cloud deck at 8200 feet AGL
Weather: -SN  (light snow)

METAR text: CYYC 180223Z 05004KT 7SM -SN SCT045 BKN083 M19/M22 A3031 RMK SC3AC4 MOON DIMLY VISBL SLP369
Conditions at: CYYC (CALGARY INTNL AR, AB, CA) observed 0223 UTC 18 February 2019
Temperature: -19.0°C (-2°F)
Dewpoint: -22.0°C (-8°F) [RH = 77%]
Pressure (altimeter): 30.31 inches Hg (1026.5 mb)
[Sea-level pressure: 1036.9 mb]
Winds: from the NE (50 degrees) at 5 MPH (4 knots; 2.1 m/s)
Visibility: 7 miles (11 km)
Ceiling: 8300 feet AGL
Clouds: scattered clouds at 4500 feet AGL
broken clouds at 8300 feet AGL
Weather: -SN  (light snow)

METAR text: CYYC 180200Z 04004KT 10SM FEW045 OVC080 M19/M22 A3031 RMK SC1AC7 SLP369
Conditions at: CYYC (CALGARY INTNL AR, AB, CA) observed 0200 UTC 18 February 2019
Temperature: -19.0°C (-2°F)
Dewpoint: -22.0°C (-8°F) [RH = 77%]
Pressure (altimeter): 30.31 inches Hg (1026.5 mb)
[Sea-level pressure: 1036.9 mb]
Winds: from the NE (40 degrees) at 5 MPH (4 knots; 2.1 m/s)
Visibility: 10 or more miles (16+ km)
Ceiling: 8000 feet AGL
Clouds: few clouds at 4500 feet AGL
overcast cloud deck at 8000 feet AGL
Weather: no significant weather observed at this time

METAR text: CYYC 180139Z 04004KT 10SM SCT042 BKN084 M19/M22 A3031 RMK SF3AC4 SLP367
Conditions at: CYYC (CALGARY INTNL AR, AB, CA) observed 0139 UTC 18 February 2019
Temperature: -19.0°C (-2°F)
Dewpoint: -22.0°C (-8°F) [RH = 77%]
Pressure (altimeter): 30.31 inches Hg (1026.5 mb)
[Sea-level pressure: 1036.7 mb]
Winds: from the NE (40 degrees) at 5 MPH (4 knots; 2.1 m/s)
Visibility: 10 or more miles (16+ km)
Ceiling: 8400 feet AGL
Clouds: scattered clouds at 4200 feet AGL
broken clouds at 8400 feet AGL
Weather: no significant weather observed at this time

METAR text: CYYC 180100Z 36006KT 3SM -SN BKN045 BKN052 OVC085 M18/M22 A3029 RMK SN4SC1SC1AC2 SLP362
Conditions at: CYYC (CALGARY INTNL AR, AB, CA) observed 0100 UTC 18 February 2019
Temperature: -18.0°C (-0°F)
Dewpoint: -22.0°C (-8°F) [RH = 71%]
Pressure (altimeter): 30.29 inches Hg (1025.8 mb)
[Sea-level pressure: 1036.2 mb]
Winds: from the N (360 degrees) at 7 MPH (6 knots; 3.1 m/s)
Visibility: 3 miles ( 5 km)
Ceiling: 4500 feet AGL
Clouds: broken clouds at 4500 feet AGL
broken clouds at 5200 feet AGL
overcast cloud deck at 8500 feet AGL
Weather: -SN  (light snow)

METAR text: CYYC 180000Z 01010KT 4SM -SN VV043 M18/M22 A3029 RMK SN8 SLP361
Conditions at: CYYC (CALGARY INTNL AR, AB, CA) observed 0000 UTC 18 February 2019
Temperature: -18.0°C (-0°F)
Dewpoint: -22.0°C (-8°F) [RH = 71%]
Pressure (altimeter): 30.29 inches Hg (1025.8 mb)
[Sea-level pressure: 1036.1 mb]
Winds: from the N (10 degrees) at 12 MPH (10 knots; 5.1 m/s)
Visibility: 4 miles ( 6 km)
Ceiling: indefinite ceiling with vertical visibility of 4300 feet AGL
Clouds: obscured sky
Weather: -SN  (light snow)

METAR text: CYYC 172300Z 36011KT 4SM -SN VV028 M17/M22 A3029 RMK SN8 SLP358
Conditions at: CYYC (CALGARY INTNL AR, AB, CA) observed 2300 UTC 17 February 2019
Temperature: -17.0°C ( 1°F)
Dewpoint: -22.0°C (-8°F) [RH = 65%]
Pressure (altimeter): 30.29 inches Hg (1025.8 mb)
[Sea-level pressure: 1035.8 mb]
Winds: from the N (360 degrees) at 13 MPH (11 knots; 5.7 m/s)
Visibility: 4 miles ( 6 km)
Ceiling: indefinite ceiling with vertical visibility of 2800 feet AGL
Clouds: obscured sky
Weather: -SN  (light snow)

METAR text: CYYC 172200Z 36011KT 3SM -SN VV015 M17/M22 A3029 RMK SN8 SLP357
Conditions at: CYYC (CALGARY INTNL AR, AB, CA) observed 2200 UTC 17 February 2019
Temperature: -17.0°C ( 1°F)
Dewpoint: -22.0°C (-8°F) [RH = 65%]
Pressure (altimeter): 30.29 inches Hg (1025.8 mb)
[Sea-level pressure: 1035.7 mb]
Winds: from the N (360 degrees) at 13 MPH (11 knots; 5.7 m/s)
Visibility: 3 miles ( 5 km)
Ceiling: indefinite ceiling with vertical visibility of 1500 feet AGL
Clouds: obscured sky
Weather: -SN  (light snow)

METAR text: CYYC 172151Z 01011KT 3SM -SN VV020 M17/M21 A3029 RMK SN8 SLP357
Conditions at: CYYC (CALGARY INTNL AR, AB, CA) observed 2151 UTC 17 February 2019
Temperature: -17.0°C ( 1°F)
Dewpoint: -21.0°C (-6°F) [RH = 71%]
Pressure (altimeter): 30.29 inches Hg (1025.8 mb)
[Sea-level pressure: 1035.7 mb]
Winds: from the N (10 degrees) at 13 MPH (11 knots; 5.7 m/s)
Visibility: 3 miles ( 5 km)
Ceiling: indefinite ceiling with vertical visibility of 2000 feet AGL
Clouds: obscured sky
Weather: -SN  (light snow)

METAR text: CYYC 172100Z 36013KT 2 1/2SM -SN VV030 M17/M21 A3028 RMK SN8 SLP356
Conditions at: CYYC (CALGARY INTNL AR, AB, CA) observed 2100 UTC 17 February 2019
Temperature: -17.0°C ( 1°F)
Dewpoint: -21.0°C (-6°F) [RH = 71%]
Pressure (altimeter): 30.28 inches Hg (1025.5 mb)
[Sea-level pressure: 1035.6 mb]
Winds: from the N (360 degrees) at 15 MPH (13 knots; 6.7 m/s)
Visibility: 2.50 miles (4.02 km)
Ceiling: indefinite ceiling with vertical visibility of 3000 feet AGL
Clouds: obscured sky
Weather: -SN  (light snow)

METAR text: CYYC 172048Z 36013KT 2 1/2SM -SN VV029 M17/M21 A3028 RMK SN8 SLP355
Conditions at: CYYC (CALGARY INTNL AR, AB, CA) observed 2048 UTC 17 February 2019
Temperature: -17.0°C ( 1°F)
Dewpoint: -21.0°C (-6°F) [RH = 71%]
Pressure (altimeter): 30.28 inches Hg (1025.5 mb)
[Sea-level pressure: 1035.5 mb]
Winds: from the N (360 degrees) at 15 MPH (13 knots; 6.7 m/s)
Visibility: 2.50 miles (4.02 km)
Ceiling: indefinite ceiling with vertical visibility of 2900 feet AGL
Clouds: obscured sky
Weather: -SN  (light snow)

METAR text: CYYC 172000Z 36012KT 3SM -SN VV019 M17/M21 A3028 RMK SN8 SLP353
Conditions at: CYYC (CALGARY INTNL AR, AB, CA) observed 2000 UTC 17 February 2019
Temperature: -17.0°C ( 1°F)
Dewpoint: -21.0°C (-6°F) [RH = 71%]
Pressure (altimeter): 30.28 inches Hg (1025.5 mb)
[Sea-level pressure: 1035.3 mb]
Winds: from the N (360 degrees) at 14 MPH (12 knots; 6.2 m/s)
Visibility: 3 miles ( 5 km)
Ceiling: indefinite ceiling with vertical visibility of 1900 feet AGL
Clouds: obscured sky
Weather: -SN  (light snow)

Forecast for: CYYC (CALGARY INTNL AR, AB, CA)
Text: TAF CYYC 190539Z 1906/2006 20006KT P6SM SKC
Forecast period: 0600 to 0700 UTC 19 February 2019
Forecast type: FROM: standard forecast or significant change
Winds: from the SSW (200 degrees) at 7 MPH (6 knots; 3.1 m/s)
Visibility: 6 or more miles 10+ km)
Clouds: clear skies
Weather: no significant weather forecast for this period
Text: BECMG 1907/1909 24006KT
Forecast period: 0700 to 1100 UTC 19 February 2019
Forecast type: BECOMING: Conditions expected to become as follows by 0900 UTC 19 February 2019
Winds: from the WSW (240 degrees) at 7 MPH (6 knots; 3.1 m/s)
Visibility: 6 or more miles 10+ km)
Clouds: clear skies
Weather: no significant weather forecast for this period
Text: FM191100 24006KT P6SM SCT100 BKN240
Forecast period: 1100 to 2000 UTC 19 February 2019
Forecast type: FROM: standard forecast or significant change
Winds: from the WSW (240 degrees) at 7 MPH (6 knots; 3.1 m/s)
Visibility: 6 or more miles 10+ km)
Ceiling: 24000 feet AGL
Clouds: scattered clouds at 10000 feet AGL
broken clouds at 24000 feet AGL
Weather: no significant weather forecast for this period
Text: TEMPO 1912/1914 BKN100
Forecast period: 1200 to 1400 UTC 19 February 2019
Forecast type: TEMPORARY: The following changes expected for less than half the time period
Visibility: missing
Ceiling: 10000 feet AGL
Clouds: broken clouds at 10000 feet AGL
Weather: no significant weather forecast for this period
Text: FM192000 27008KT P6SM BKN100
Forecast period: 2000 UTC 19 February 2019 to 0100 UTC 20 February 2019
Forecast type: FROM: standard forecast or significant change
Winds: from the W (270 degrees) at 9 MPH (8 knots; 4.1 m/s)
Visibility: 6 or more miles 10+ km)
Ceiling: 10000 feet AGL
Clouds: broken clouds at 10000 feet AGL
Weather: no significant weather forecast for this period
Text: TEMPO 1922/2006 5SM -SHSN BKN060
Forecast period: 2200 UTC 19 February 2019 to 0600 UTC 20 February 2019
Forecast type: TEMPORARY: The following changes expected for less than half the time period
Visibility: 5 miles (8 km)
Ceiling: 6000 feet AGL
Clouds: broken clouds at 6000 feet AGL
Weather: -SHSN  (light snow showers)
Text: BECMG 2001/2003 25004KT RMK NXT FCST BY 190900Z
Forecast period: 0100 to 0600 UTC 20 February 2019
Forecast type: BECOMING: Conditions expected to become as follows by 0300 UTC 20 February 2019
Winds: from the WSW (250 degrees) at 5 MPH (4 knots; 2.1 m/s)
Visibility: 6 or more miles 10+ km)
Ceiling: 10000 feet AGL
Clouds: broken clouds at 10000 feet AGL
Weather: no significant weather forecast for this period